Terminal Aerodrome Forecast
Issued by NWS Milwaukee/Sullivan, WI

Current Version | Previous Version | Text Only | Print | Product List | Glossary On
Versions: 1 2 3 4 5 6 7 8 9 10 11 12 13 14 15 16 17 18 19 20 21 22 23 24 25 26 27 28 29 30 31 32 33 34 35 36 37 38 39 40 41 42 43 44 45 46 47 48
000
FTUS43 KMKX 300401 AAA
TAFMKE
TAF AMD
KMKE 300401Z 3004/0106 16005KT P6SM VCSH SCT080
     FM300800 17004KT 5SM BR VCSH BKN080
     FM301100 23004KT 3SM BR BKN090
     FM301400 25004KT P6SM SCT030 BKN070
     FM301600 32005KT P6SM BKN040
     FM302000 02006KT P6SM BKN040
     FM010000 02008KT P6SM SCT050=

USA.gov is the U.S. government's official web portal to all federal, state and local government web resources and services.